createdAt,value
2023-04-17T00:02:01.546Z,11.03
2023-04-17T00:05:03.099Z,10.70
2023-04-17T00:08:04.566Z,11.80
2023-04-17T00:11:08.670Z,10.53
2023-04-17T00:14:10.702Z,11.17
2023-04-17T00:17:12.100Z,11.83
2023-04-17T00:20:13.611Z,11.03
2023-04-17T00:23:14.962Z,10.53
2023-04-17T00:26:16.526Z,11.03
2023-04-17T00:29:18.093Z,10.90
2023-04-17T00:32:19.555Z,11.07
2023-04-17T00:35:21.120Z,10.93
2023-04-17T00:38:22.597Z,10.87
2023-04-17T00:41:24.155Z,11.43
2023-04-17T00:44:25.583Z,11.57
2023-04-17T00:47:27.435Z,11.67
2023-04-17T00:50:29.501Z,11.10
2023-04-17T00:53:31.580Z,12.57
2023-04-17T00:56:33.395Z,11.67
2023-04-17T00:59:37.125Z,10.83
2023-04-17T01:02:38.688Z,11.60
2023-04-17T01:05:41.207Z,12.33
2023-04-17T01:08:43.890Z,12.27
2023-04-17T01:11:45.806Z,12.03
2023-04-17T01:14:50.811Z,13.40
2023-04-17T01:17:52.249Z,12.73
2023-04-17T01:20:53.731Z,12.60
2023-04-17T01:23:55.771Z,12.07
2023-04-17T01:27:03.761Z,12.23
2023-04-17T01:30:05.863Z,12.27
2023-04-17T01:33:14.171Z,12.73
2023-04-17T01:36:16.264Z,12.67
2023-04-17T01:39:18.246Z,12.63
2023-04-17T01:42:19.627Z,11.73
2023-04-17T01:45:21.360Z,11.97
2023-04-17T01:48:22.728Z,12.33
2023-04-17T01:51:24.208Z,12.40
2023-04-17T01:54:25.932Z,12.47
2023-04-17T01:57:28.161Z,12.50
2023-04-17T02:00:30.003Z,13.07
2023-04-17T02:03:32.583Z,12.70
2023-04-17T02:06:34.531Z,12.27
2023-04-17T02:09:36.143Z,12.57
2023-04-17T02:12:37.586Z,11.80
2023-04-17T02:15:39.074Z,11.57
2023-04-17T02:18:40.878Z,13.70
2023-04-17T02:21:42.311Z,13.23
2023-04-17T02:24:43.921Z,12.97
2023-04-17T02:27:45.306Z,12.57
2023-04-17T02:30:46.778Z,12.47
2023-04-17T02:33:48.216Z,12.60
2023-04-17T02:36:49.666Z,12.10
2023-04-17T02:39:54.088Z,13.50
2023-04-17T02:42:55.848Z,12.47
2023-04-17T02:45:57.322Z,12.53
2023-04-17T02:49:00.470Z,12.57
2023-04-17T02:52:01.886Z,12.60
2023-04-17T02:55:03.562Z,12.50
2023-04-17T02:58:05.890Z,12.70
2023-04-17T03:01:07.319Z,13.47
2023-04-17T03:04:13.508Z,12.70
2023-04-17T03:07:18.614Z,12.20
2023-04-17T03:10:20.018Z,12.80
2023-04-17T03:13:22.139Z,13.50
2023-04-17T03:16:23.599Z,13.07
2023-04-17T03:19:25.169Z,12.93
2023-04-17T03:22:26.641Z,13.20
2023-04-17T03:25:28.227Z,14.20
2023-04-17T03:28:29.768Z,12.97
2023-04-17T03:31:31.229Z,12.70
2023-04-17T03:34:32.743Z,13.37
2023-04-17T03:37:34.407Z,12.23
2023-04-17T03:40:36.561Z,13.03
2023-04-17T03:43:37.977Z,13.37
2023-04-17T03:46:39.418Z,13.57
2023-04-17T03:49:40.856Z,12.53
2023-04-17T03:52:43.173Z,13.30
2023-04-17T03:55:44.590Z,13.27
2023-04-17T03:58:55.587Z,13.13
2023-04-17T04:01:57.605Z,12.77
2023-04-17T04:05:01.427Z,12.73
2023-04-17T04:08:03.014Z,13.13
2023-04-17T04:11:24.756Z,12.93
2023-04-17T04:14:26.382Z,13.87
2023-04-17T04:17:27.973Z,13.10
2023-04-17T04:20:30.778Z,13.60
2023-04-17T04:23:45.541Z,14.20
2023-04-17T04:26:49.782Z,13.90
2023-04-17T04:29:51.945Z,13.73
2023-04-17T04:32:56.906Z,13.07
2023-04-17T04:36:01.041Z,12.80
2023-04-17T04:39:06.755Z,12.27
2023-04-17T04:42:10.656Z,12.80
2023-04-17T04:45:26.717Z,13.10
2023-04-17T04:48:29.397Z,13.37
2023-04-17T04:51:31.837Z,13.60
2023-04-17T04:54:33.563Z,12.47
2023-04-17T04:57:36.313Z,13.17
2023-04-17T05:00:38.344Z,13.10
2023-04-17T05:03:40.799Z,13.33
2023-04-17T05:06:44.129Z,12.90
2023-04-17T05:09:45.608Z,12.80
2023-04-17T05:12:48.761Z,13.03
2023-04-17T05:15:51.440Z,13.23
2023-04-17T05:18:58.445Z,13.43
2023-04-17T05:22:19.172Z,13.23
2023-04-17T05:25:35.303Z,13.73
2023-04-17T05:28:40.865Z,14.50
2023-04-17T05:31:42.828Z,14.27
2023-04-17T05:34:57.183Z,13.20
2023-04-17T05:38:01.510Z,13.97
2023-04-17T05:41:03.083Z,13.20
2023-04-17T05:44:04.588Z,13.43
2023-04-17T05:47:07.014Z,13.53
2023-04-17T05:50:08.762Z,14.00
2023-04-17T05:53:10.681Z,13.07
2023-04-17T05:56:19.785Z,15.07
2023-04-17T05:59:21.248Z,14.23
2023-04-17T06:02:23.168Z,14.37
2023-04-17T06:05:24.898Z,14.97
2023-04-17T06:08:28.053Z,14.40
2023-04-17T06:11:29.463Z,16.07
2023-04-17T06:14:32.745Z,14.33
2023-04-17T06:17:38.011Z,15.17
2023-04-17T06:20:40.703Z,16.43
2023-04-17T06:23:42.118Z,16.60
2023-04-17T06:26:43.505Z,16.23
2023-04-17T06:29:45.059Z,16.57
2023-04-17T06:32:46.632Z,16.83
2023-04-17T06:35:48.177Z,17.40
2023-04-17T06:38:58.170Z,16.37
2023-04-17T06:41:59.584Z,16.63
2023-04-17T06:45:02.620Z,16.23
2023-04-17T06:48:04.352Z,16.63
2023-04-17T06:51:06.097Z,17.40
2023-04-17T06:54:09.781Z,16.23
2023-04-17T06:57:12.044Z,17.23
2023-04-17T07:00:14.212Z,17.00
2023-04-17T07:03:16.601Z,16.93
2023-04-17T07:06:19.392Z,16.70
2023-04-17T07:09:20.842Z,17.87
2023-04-17T07:12:22.759Z,17.80
2023-04-17T07:15:24.334Z,18.13
2023-04-17T07:18:26.759Z,16.63
2023-04-17T07:21:28.206Z,16.93
2023-04-17T07:24:29.650Z,16.30
2023-04-17T07:27:31.083Z,16.43
2023-04-17T07:30:32.698Z,16.07
2023-04-17T07:33:37.424Z,15.80
2023-04-17T07:36:40.541Z,15.17
2023-04-17T07:39:42.582Z,14.70
2023-04-17T07:42:44.081Z,15.17
2023-04-17T07:45:45.491Z,16.13
2023-04-17T07:48:46.884Z,16.60
2023-04-17T07:51:48.400Z,15.47
2023-04-17T07:54:49.790Z,16.53
2023-04-17T07:57:51.668Z,15.60
2023-04-17T08:00:53.200Z,14.60
2023-04-17T08:03:55.530Z,14.23
2023-04-17T08:06:57.181Z,13.10
2023-04-17T08:09:58.640Z,12.57
2023-04-17T08:13:01.887Z,12.47
2023-04-17T08:16:04.171Z,13.77
2023-04-17T08:19:05.711Z,12.23
2023-04-17T08:22:08.048Z,12.43
2023-04-17T08:25:10.714Z,11.80
2023-04-17T08:28:12.089Z,11.50
2023-04-17T08:31:13.922Z,11.67
2023-04-17T08:34:15.837Z,10.93
2023-04-17T08:37:17.244Z,9.63
2023-04-17T08:40:21.400Z,10.30
2023-04-17T08:43:25.976Z,11.03
2023-04-17T08:46:28.515Z,10.53
2023-04-17T08:49:33.627Z,9.50
2023-04-17T08:52:45.507Z,10.50
2023-04-17T08:55:48.225Z,10.30
2023-04-17T08:58:49.592Z,9.33
2023-04-17T09:02:05.167Z,9.70
2023-04-17T09:05:19.186Z,8.20
2023-04-17T09:08:23.962Z,8.03
2023-04-17T09:11:26.357Z,9.37
2023-04-17T09:14:31.395Z,9.33
2023-04-17T09:17:34.596Z,7.53
2023-04-17T09:20:49.720Z,6.80
2023-04-17T09:23:55.387Z,7.50
2023-04-17T09:27:18.600Z,7.60
2023-04-17T09:30:20.267Z,6.67
2023-04-17T09:33:21.838Z,5.77
2023-04-17T09:36:23.469Z,5.90
2023-04-17T09:39:25.081Z,6.13
2023-04-17T09:42:27.705Z,5.93
2023-04-17T09:45:39.954Z,4.70
2023-04-17T09:48:41.452Z,5.60
2023-04-17T09:51:42.856Z,5.10
2023-04-17T09:54:46.277Z,4.83
2023-04-17T09:57:55.394Z,4.53
2023-04-17T10:00:57.264Z,4.87
2023-04-17T10:03:59.534Z,4.47
2023-04-17T10:07:04.384Z,4.20
2023-04-17T10:10:10.626Z,5.07
2023-04-17T10:13:13.158Z,5.70
2023-04-17T10:16:15.010Z,5.77
2023-04-17T10:19:33.366Z,5.27
2023-04-17T10:22:41.102Z,6.00
2023-04-17T10:25:42.696Z,5.67
2023-04-17T10:28:49.196Z,5.93
2023-04-17T10:32:08.934Z,5.43
2023-04-17T10:35:16.579Z,5.23
2023-04-17T10:38:32.292Z,5.67
2023-04-17T10:41:33.796Z,5.30
2023-04-17T10:44:38.881Z,5.63
2023-04-17T10:47:40.652Z,5.77
2023-04-17T10:50:42.730Z,6.27
2023-04-17T10:53:44.936Z,6.07
2023-04-17T10:56:48.125Z,5.80
2023-04-17T11:00:13.721Z,6.47
2023-04-17T11:03:16.554Z,6.30
2023-04-17T11:06:19.061Z,5.97
2023-04-17T11:09:21.881Z,6.10
2023-04-17T11:12:23.285Z,5.83
2023-04-17T11:15:31.646Z,5.33
2023-04-17T11:18:33.162Z,5.97
2023-04-17T11:21:38.900Z,4.90
2023-04-17T11:24:40.276Z,5.53
2023-04-17T11:27:42.314Z,5.47
2023-04-17T11:30:46.801Z,5.57
2023-04-17T11:33:48.375Z,5.13
2023-04-17T11:36:51.484Z,5.10
2023-04-17T11:39:53.102Z,4.57
2023-04-17T11:42:54.608Z,5.40
2023-04-17T11:45:58.243Z,4.87
2023-04-17T11:48:59.905Z,5.70
2023-04-17T11:52:03.519Z,5.67
2023-04-17T11:55:08.924Z,5.07
2023-04-17T11:58:12.200Z,4.50
2023-04-17T12:01:13.879Z,5.30
2023-04-17T12:04:22.066Z,4.47
2023-04-17T12:07:24.793Z,4.30
2023-04-17T12:10:38.885Z,4.60
2023-04-17T12:13:40.301Z,3.83
2023-04-17T12:16:41.859Z,3.90
2023-04-17T12:19:45.076Z,2.53
2023-04-17T12:22:46.504Z,2.63
2023-04-17T12:25:51.847Z,2.80
2023-04-17T12:28:54.817Z,2.80
2023-04-17T12:31:56.421Z,2.63
2023-04-17T12:35:00.824Z,2.80
2023-04-17T12:38:02.462Z,2.20
2023-04-17T12:41:04.052Z,2.70
2023-04-17T12:44:05.707Z,3.73
2023-04-17T12:47:07.301Z,3.10
2023-04-17T12:50:10.886Z,3.17
2023-04-17T12:53:13.920Z,2.90
2023-04-17T12:56:15.535Z,3.60
2023-04-17T12:59:18.382Z,3.10
2023-04-17T13:02:21.100Z,3.30
2023-04-17T13:05:25.249Z,3.30
2023-04-17T13:08:26.709Z,3.33
2023-04-17T13:11:28.752Z,3.20
2023-04-17T13:14:30.771Z,3.47
2023-04-17T13:17:32.239Z,2.90
2023-04-17T13:20:35.185Z,3.10
2023-04-17T13:23:36.917Z,2.63
2023-04-17T13:26:38.418Z,3.27
2023-04-17T13:29:42.407Z,3.30
2023-04-17T13:32:44.063Z,2.70
2023-04-17T13:35:45.733Z,2.97
2023-04-17T13:38:47.169Z,3.13
2023-04-17T13:41:49.070Z,3.20
2023-04-17T13:44:50.588Z,3.30
2023-04-17T13:47:53.002Z,3.43
2023-04-17T13:50:54.478Z,4.00
2023-04-17T13:53:58.624Z,3.60
2023-04-17T13:57:01.134Z,3.87
2023-04-17T14:00:02.814Z,4.30
2023-04-17T14:03:06.230Z,3.97
2023-04-17T14:06:08.005Z,4.53
2023-04-17T14:09:11.150Z,4.10
2023-04-17T14:12:19.597Z,4.07
2023-04-17T14:15:21.340Z,4.20
2023-04-17T14:18:27.010Z,3.83
2023-04-17T14:21:28.749Z,3.47
2023-04-17T14:24:32.252Z,3.30
2023-04-17T14:27:37.300Z,3.90
2023-04-17T14:30:38.896Z,3.67
2023-04-17T14:33:40.408Z,3.37
2023-04-17T14:36:43.549Z,3.40
2023-04-17T14:39:45.428Z,3.67
2023-04-17T14:42:54.195Z,3.40
2023-04-17T14:45:57.325Z,3.13
2023-04-17T14:48:59.808Z,2.67
2023-04-17T14:52:01.375Z,3.27
2023-04-17T14:55:03.898Z,2.90
2023-04-17T14:58:05.493Z,2.70
2023-04-17T15:01:06.926Z,2.80
2023-04-17T15:04:08.487Z,2.80
2023-04-17T15:07:10.120Z,2.90
2023-04-17T15:10:11.973Z,2.93
2023-04-17T15:13:13.762Z,3.00
2023-04-17T15:16:15.433Z,2.20
2023-04-17T15:19:16.853Z,2.30
2023-04-17T15:22:20.020Z,2.00
2023-04-17T15:25:23.934Z,3.30
2023-04-17T15:28:25.523Z,2.20
2023-04-17T15:31:27.132Z,1.90
2023-04-17T15:34:30.169Z,2.37
2023-04-17T15:37:31.620Z,2.03
2023-04-17T15:40:33.918Z,1.63
2023-04-17T15:43:35.653Z,2.00
2023-04-17T15:46:38.755Z,2.07
2023-04-17T15:49:40.602Z,1.33
2023-04-17T15:52:42.176Z,2.37
2023-04-17T15:55:43.670Z,2.60
2023-04-17T15:58:45.158Z,1.67
2023-04-17T16:01:47.694Z,1.33
2023-04-17T16:04:49.244Z,1.63
2023-04-17T16:07:50.755Z,1.60
2023-04-17T16:10:52.139Z,1.40
2023-04-17T16:13:53.523Z,1.40
2023-04-17T16:16:54.981Z,1.50
2023-04-17T16:19:56.927Z,1.50
2023-04-17T16:22:58.346Z,1.93
2023-04-17T16:25:59.714Z,2.00
2023-04-17T16:29:01.105Z,1.80
2023-04-17T16:32:02.548Z,1.50
2023-04-17T16:35:04.391Z,1.67
2023-04-17T16:38:06.077Z,1.80
2023-04-17T16:41:07.477Z,1.60
2023-04-17T16:44:08.945Z,1.90
2023-04-17T16:47:13.855Z,1.50
2023-04-17T16:50:15.889Z,1.50
2023-04-17T16:53:17.895Z,1.73
2023-04-17T16:56:19.390Z,1.40
2023-04-17T16:59:20.838Z,1.30
2023-04-17T17:02:23.108Z,1.40
2023-04-17T17:05:24.691Z,2.10
2023-04-17T17:08:26.481Z,1.40
2023-04-17T17:11:27.861Z,1.30
2023-04-17T17:14:29.328Z,1.60
2023-04-17T17:17:30.791Z,1.40
2023-04-17T17:20:32.270Z,1.50
2023-04-17T17:23:34.492Z,1.60
2023-04-17T17:26:36.771Z,1.57
2023-04-17T17:29:38.696Z,1.73
2023-04-17T17:32:41.001Z,3.23
2023-04-17T17:35:43.192Z,2.40
2023-04-17T17:38:44.617Z,1.73
2023-04-17T17:41:47.438Z,1.60
2023-04-17T17:44:49.108Z,1.77
2023-04-17T17:47:50.634Z,1.93
2023-04-17T17:50:54.872Z,1.93
2023-04-17T17:53:56.296Z,1.93
2023-04-17T17:56:57.929Z,2.00
2023-04-17T17:59:59.936Z,1.87
2023-04-17T18:03:02.188Z,1.70
2023-04-17T18:06:04.005Z,2.10
2023-04-17T18:09:05.459Z,1.83
2023-04-17T18:12:07.544Z,2.10
2023-04-17T18:15:09.363Z,2.30
2023-04-17T18:18:10.830Z,2.20
2023-04-17T18:21:12.709Z,2.17
2023-04-17T18:24:14.439Z,2.60
2023-04-17T18:27:16.082Z,2.63
2023-04-17T18:30:17.462Z,3.10
2023-04-17T18:33:19.024Z,3.10
2023-04-17T18:36:20.398Z,3.30
2023-04-17T18:39:21.866Z,4.07
2023-04-17T18:42:23.414Z,4.67
2023-04-17T18:45:24.984Z,3.80
2023-04-17T18:48:26.485Z,3.40
2023-04-17T18:51:28.104Z,4.07
2023-04-17T18:54:29.691Z,3.50
2023-04-17T18:57:31.110Z,3.60
2023-04-17T19:00:32.763Z,4.47
2023-04-17T19:03:34.890Z,3.67
2023-04-17T19:06:36.421Z,5.53
2023-04-17T19:09:37.798Z,4.80
2023-04-17T19:12:39.979Z,4.30
2023-04-17T19:15:41.418Z,4.30
2023-04-17T19:18:42.833Z,4.03
2023-04-17T19:21:44.218Z,4.10
2023-04-17T19:24:49.641Z,3.90
2023-04-17T19:27:51.105Z,4.03
2023-04-17T19:30:52.493Z,4.30
2023-04-17T19:33:57.141Z,4.00
2023-04-17T19:36:58.677Z,4.53
2023-04-17T19:40:01.336Z,4.40
2023-04-17T19:43:03.956Z,4.30
2023-04-17T19:46:05.386Z,4.90
2023-04-17T19:49:07.030Z,3.73
2023-04-17T19:52:09.385Z,4.27
2023-04-17T19:55:11.490Z,3.97
2023-04-17T19:58:12.882Z,4.27
2023-04-17T20:01:14.891Z,5.03
2023-04-17T20:04:16.928Z,4.73
2023-04-17T20:07:18.477Z,4.30
2023-04-17T20:10:20.113Z,4.37
2023-04-17T20:13:22.143Z,4.67
2023-04-17T20:16:24.054Z,4.60
2023-04-17T20:19:25.628Z,4.20
2023-04-17T20:22:27.016Z,4.30
2023-04-17T20:25:30.281Z,4.80
2023-04-17T20:28:31.718Z,6.10
2023-04-17T20:31:36.153Z,5.90
2023-04-17T20:34:37.960Z,5.77
2023-04-17T20:37:40.574Z,5.57
2023-04-17T20:40:42.076Z,5.10
2023-04-17T20:43:43.545Z,5.40
2023-04-17T20:46:44.977Z,6.00
2023-04-17T20:49:46.408Z,5.60
2023-04-17T20:52:47.830Z,6.30
2023-04-17T20:55:49.222Z,7.63
2023-04-17T20:58:50.757Z,6.27
2023-04-17T21:01:52.392Z,5.93
2023-04-17T21:04:53.971Z,6.27
2023-04-17T21:07:57.541Z,5.80
2023-04-17T21:10:59.003Z,5.83
2023-04-17T21:14:00.412Z,6.90
2023-04-17T21:17:01.864Z,6.67
2023-04-17T21:20:04.856Z,6.27
2023-04-17T21:23:06.957Z,5.90
2023-04-17T21:26:08.494Z,6.10
2023-04-17T21:29:09.866Z,6.00
2023-04-17T21:32:11.323Z,5.50
2023-04-17T21:35:12.843Z,6.40
2023-04-17T21:38:14.262Z,6.07
2023-04-17T21:41:15.836Z,6.60
2023-04-17T21:44:17.279Z,5.80
2023-04-17T21:47:19.536Z,5.83
2023-04-17T21:50:20.956Z,5.80
2023-04-17T21:53:22.357Z,5.20
2023-04-17T21:56:24.450Z,6.73
2023-04-17T21:59:25.862Z,6.70
2023-04-17T22:02:27.362Z,6.43
2023-04-17T22:05:28.780Z,6.03
2023-04-17T22:08:30.235Z,5.93
2023-04-17T22:11:31.626Z,7.00
2023-04-17T22:14:33.037Z,6.03
2023-04-17T22:17:34.585Z,6.97
2023-04-17T22:20:36.355Z,6.47
2023-04-17T22:23:37.734Z,6.13
2023-04-17T22:26:39.140Z,5.83
2023-04-17T22:29:40.581Z,5.87
2023-04-17T22:32:42.384Z,6.17
2023-04-17T22:35:43.830Z,6.17
2023-04-17T22:38:45.363Z,5.90
2023-04-17T22:41:46.957Z,6.17
2023-04-17T22:44:48.329Z,6.40
2023-04-17T22:47:49.837Z,6.60
2023-04-17T22:50:51.268Z,6.37
2023-04-17T22:53:52.807Z,6.00
2023-04-17T22:56:54.195Z,6.00
2023-04-17T22:59:55.602Z,6.03
2023-04-17T23:02:57.266Z,6.30
2023-04-17T23:05:58.768Z,6.83
2023-04-17T23:09:00.183Z,6.13
2023-04-17T23:12:02.119Z,6.80
2023-04-17T23:15:04.159Z,6.90
2023-04-17T23:18:05.707Z,6.80
2023-04-17T23:21:07.208Z,6.70
2023-04-17T23:24:08.742Z,6.93
2023-04-17T23:27:10.140Z,5.80
2023-04-17T23:30:11.920Z,5.97
2023-04-17T23:33:13.326Z,6.90
2023-04-17T23:36:14.823Z,6.27
2023-04-17T23:39:16.184Z,7.10
2023-04-17T23:42:17.653Z,6.40
2023-04-17T23:45:19.047Z,7.03
2023-04-17T23:48:20.493Z,6.73
2023-04-17T23:51:21.865Z,6.57
2023-04-17T23:54:23.319Z,6.63
2023-04-17T23:57:24.876Z,6.43
